sensor_id;sensor_type;location;lat;lon;timestamp;temperature;humidity
2653;DHT22;1336;48.692;9.144;2023-06-14T05:00:25;17.60;97.20
2653;DHT22;1336;48.692;9.144;2023-06-14T05:01:17;17.60;97.20
2653;DHT22;1336;48.692;9.144;2023-06-14T05:02:07;17.60;97.20
2653;DHT22;1336;48.692;9.144;2023-06-14T05:02:59;17.70;97.20
2653;DHT22;1336;48.692;9.144;2023-06-14T05:03:51;17.70;97.20
2653;DHT22;1336;48.692;9.144;2023-06-14T05:04:43;17.70;97.20
2653;DHT22;1336;48.692;9.144;2023-06-14T05:05:34;17.80;97.20
2653;DHT22;1336;48.692;9.144;2023-06-14T05:06:25;17.80;97.20
2653;DHT22;1336;48.692;9.144;2023-06-14T05:07:17;17.80;97.20
2653;DHT22;1336;48.692;9.144;2023-06-14T05:08:08;17.90;97.20
2653;DHT22;1336;48.692;9.144;2023-06-14T05:09:00;17.90;97.20
2653;DHT22;1336;48.692;9.144;2023-06-14T05:09:51;17.90;97.20
2653;DHT22;1336;48.692;9.144;2023-06-14T05:10:42;17.90;97.20
2653;DHT22;1336;48.692;9.144;2023-06-14T05:11:33;17.90;97.20
2653;DHT22;1336;48.692;9.144;2023-06-14T05:12:25;18.00;97.20
2653;DHT22;1336;48.692;9.144;2023-06-14T05:13:16;18.00;97.20
2653;DHT22;1336;48.692;9.144;2023-06-14T05:14:07;18.00;97.20
2653;DHT22;1336;48.692;9.144;2023-06-14T05:14:58;18.00;97.20
2653;DHT22;1336;48.692;9.144;2023-06-14T05:15:51;18.00;97.20
2653;DHT22;1336;48.692;9.144;2023-06-14T05:16:42;18.10;97.20
2653;DHT22;1336;48.692;9.144;2023-06-14T05:17:34;18.10;97.20
2653;DHT22;1336;48.692;9.144;2023-06-14T05:18:26;18.10;97.20
2653;DHT22;1336;48.692;9.144;2023-06-14T05:19:18;18.10;97.20
2653;DHT22;1336;48.692;9.144;2023-06-14T05:20:11;18.20;97.20
2653;DHT22;1336;48.692;9.144;2023-06-14T05:21:03;18.20;97.20
2653;DHT22;1336;48.692;9.144;2023-06-14T05:21:54;18.30;97.20
2653;DHT22;1336;48.692;9.144;2023-06-14T05:22:46;18.30;97.20
2653;DHT22;1336;48.692;9.144;2023-06-14T05:23:38;18.30;97.20
2653;DHT22;1336;48.692;9.144;2023-06-14T05:24:30;18.30;97.20
2653;DHT22;1336;48.692;9.144;2023-06-14T05:25:21;18.40;97.20
2653;DHT22;1336;48.692;9.144;2023-06-14T05:26:13;18.40;97.20
2653;DHT22;1336;48.692;9.144;2023-06-14T05:27:04;18.40;97.20
2653;DHT22;1336;48.692;9.144;2023-06-14T05:27:56;18.40;97.20
2653;DHT22;1336;48.692;9.144;2023-06-14T05:28:46;18.40;97.20
2653;DHT22;1336;48.692;9.144;2023-06-14T05:29:38;18.50;97.20
2653;DHT22;1336;48.692;9.144;2023-06-14T05:30:29;18.50;97.20
2653;DHT22;1336;48.692;9.144;2023-06-14T05:31:22;18.50;97.20
2653;DHT22;1336;48.692;9.144;2023-06-14T05:32:13;18.50;97.20
2653;DHT22;1336;48.692;9.144;2023-06-14T05:33:05;18.60;97.20
2653;DHT22;1336;48.692;9.144;2023-06-14T05:33:56;18.60;97.20
2653;DHT22;1336;48.692;9.144;2023-06-14T05:34:47;18.60;97.20
2653;DHT22;1336;48.692;9.144;2023-06-14T05:35:38;18.70;97.20
2653;DHT22;1336;48.692;9.144;2023-06-14T05:36:30;18.70;97.20
2653;DHT22;1336;48.692;9.144;2023-06-14T05:37:21;18.70;97.20
2653;DHT22;1336;48.692;9.144;2023-06-14T05:38:12;18.70;97.20
2653;DHT22;1336;48.692;9.144;2023-06-14T05:39:03;18.80;97.20
2653;DHT22;1336;48.692;9.144;2023-06-14T05:39:56;18.80;97.20
2653;DHT22;1336;48.692;9.144;2023-06-14T05:40:47;18.80;97.20
2653;DHT22;1336;48.692;9.144;2023-06-14T05:41:38;18.80;97.20
2653;DHT22;1336;48.692;9.144;2023-06-14T05:42:29;18.90;97.20
2653;DHT22;1336;48.692;9.144;2023-06-14T05:43:21;18.90;97.20
2653;DHT22;1336;48.692;9.144;2023-06-14T05:44:11;18.90;97.20
2653;DHT22;1336;48.692;9.144;2023-06-14T05:45:04;18.90;97.20
2653;DHT22;1336;48.692;9.144;2023-06-14T05:45:56;18.90;97.20
2653;DHT22;1336;48.692;9.144;2023-06-14T05:46:49;19.00;97.20
2653;DHT22;1336;48.692;9.144;2023-06-14T05:47:40;19.00;97.20
2653;DHT22;1336;48.692;9.144;2023-06-14T05:48:31;19.00;97.20
2653;DHT22;1336;48.692;9.144;2023-06-14T05:49:22;19.10;97.20
2653;DHT22;1336;48.692;9.144;2023-06-14T05:50:14;19.10;97.20
2653;DHT22;1336;48.692;9.144;2023-06-14T05:51:05;19.10;97.20
2653;DHT22;1336;48.692;9.144;2023-06-14T05:51:59;19.10;97.20
2653;DHT22;1336;48.692;9.144;2023-06-14T05:52:49;19.20;97.20
2653;DHT22;1336;48.692;9.144;2023-06-14T05:53:41;19.20;97.20
2653;DHT22;1336;48.692;9.144;2023-06-14T05:54:32;19.20;97.20
2653;DHT22;1336;48.692;9.144;2023-06-14T05:55:24;19.20;97.20
2653;DHT22;1336;48.692;9.144;2023-06-14T05:56:15;19.30;97.20
2653;DHT22;1336;48.692;9.144;2023-06-14T05:57:08;19.30;97.20
2653;DHT22;1336;48.692;9.144;2023-06-14T05:57:59;19.30;97.20
2653;DHT22;1336;48.692;9.144;2023-06-14T05:58:51;19.30;97.20
2653;DHT22;1336;48.692;9.144;2023-06-14T05:59:41;19.30;97.20
2653;DHT22;1336;48.692;9.144;2023-06-14T06:00:33;19.40;97.20
2653;DHT22;1336;48.692;9.144;2023-06-14T06:01:24;19.40;97.20
2653;DHT22;1336;48.692;9.144;2023-06-14T06:02:18;19.40;97.20
2653;DHT22;1336;48.692;9.144;2023-06-14T06:03:09;19.40;97.20
2653;DHT22;1336;48.692;9.144;2023-06-14T06:04:01;19.40;97.20
2653;DHT22;1336;48.692;9.144;2023-06-14T06:04:52;19.40;97.20
2653;DHT22;1336;48.692;9.144;2023-06-14T06:05:44;19.40;97.20
2653;DHT22;1336;48.692;9.144;2023-06-14T06:06:34;19.50;97.20
2653;DHT22;1336;48.692;9.144;2023-06-14T06:07:26;19.50;97.20
2653;DHT22;1336;48.692;9.144;2023-06-14T06:08:17;19.50;97.20
2653;DHT22;1336;48.692;9.144;2023-06-14T06:09:09;19.50;97.20
2653;DHT22;1336;48.692;9.144;2023-06-14T06:10:00;19.50;97.20
2653;DHT22;1336;48.692;9.144;2023-06-14T06:10:51;19.50;97.20
2653;DHT22;1336;48.692;9.144;2023-06-14T06:11:42;19.60;97.20
2653;DHT22;1336;48.692;9.144;2023-06-14T06:12:34;19.60;97.20
2653;DHT22;1336;48.692;9.144;2023-06-14T06:13:25;19.60;97.20
2653;DHT22;1336;48.692;9.144;2023-06-14T06:14:16;19.70;97.20
2653;DHT22;1336;48.692;9.144;2023-06-14T06:15:08;19.70;97.20
2653;DHT22;1336;48.692;9.144;2023-06-14T06:16:02;19.70;97.20
2653;DHT22;1336;48.692;9.144;2023-06-14T06:16:53;19.70;97.20
2653;DHT22;1336;48.692;9.144;2023-06-14T06:17:46;19.80;97.20
2653;DHT22;1336;48.692;9.144;2023-06-14T06:18:37;19.80;97.20
2653;DHT22;1336;48.692;9.144;2023-06-14T06:19:29;19.80;97.20
2653;DHT22;1336;48.692;9.144;2023-06-14T06:20:20;19.80;97.20
2653;DHT22;1336;48.692;9.144;2023-06-14T06:21:11;19.80;97.20
2653;DHT22;1336;48.692;9.144;2023-06-14T06:22:04;19.80;97.20
2653;DHT22;1336;48.692;9.144;2023-06-14T06:22:56;19.90;97.20
2653;DHT22;1336;48.692;9.144;2023-06-14T06:23:48;19.90;97.20
2653;DHT22;1336;48.692;9.144;2023-06-14T06:24:39;20.00;97.20
2653;DHT22;1336;48.692;9.144;2023-06-14T06:25:30;20.00;97.20
2653;DHT22;1336;48.692;9.144;2023-06-14T06:26:22;20.00;97.20
2653;DHT22;1336;48.692;9.144;2023-06-14T06:27:14;20.00;97.20
2653;DHT22;1336;48.692;9.144;2023-06-14T06:28:05;20.10;97.20
2653;DHT22;1336;48.692;9.144;2023-06-14T06:28:57;20.10;97.20
2653;DHT22;1336;48.692;9.144;2023-06-14T06:29:48;20.10;97.20
2653;DHT22;1336;48.692;9.144;2023-06-14T06:30:40;20.20;97.20
2653;DHT22;1336;48.692;9.144;2023-06-14T06:31:30;20.20;97.20
2653;DHT22;1336;48.692;9.144;2023-06-14T06:32:22;20.20;97.20
2653;DHT22;1336;48.692;9.144;2023-06-14T06:33:14;20.30;97.20
2653;DHT22;1336;48.692;9.144;2023-06-14T06:34:06;20.30;97.20
2653;DHT22;1336;48.692;9.144;2023-06-14T06:34:57;20.30;97.20
2653;DHT22;1336;48.692;9.144;2023-06-14T06:35:50;20.40;97.20
2653;DHT22;1336;48.692;9.144;2023-06-14T06:36:41;20.40;97.20
2653;DHT22;1336;48.692;9.144;2023-06-14T06:37:32;20.40;97.20
2653;DHT22;1336;48.692;9.144;2023-06-14T06:38:24;20.50;97.20
2653;DHT22;1336;48.692;9.144;2023-06-14T06:39:15;20.50;97.20
2653;DHT22;1336;48.692;9.144;2023-06-14T06:40:07;20.50;97.20
2653;DHT22;1336;48.692;9.144;2023-06-14T06:40:59;20.60;97.20
2653;DHT22;1336;48.692;9.144;2023-06-14T06:41:51;20.60;97.20
2653;DHT22;1336;48.692;9.144;2023-06-14T06:42:42;20.60;97.20
2653;DHT22;1336;48.692;9.144;2023-06-14T06:43:34;20.60;97.20
2653;DHT22;1336;48.692;9.144;2023-06-14T06:44:24;20.70;97.20
2653;DHT22;1336;48.692;9.144;2023-06-14T06:45:16;20.70;97.20
2653;DHT22;1336;48.692;9.144;2023-06-14T06:46:07;20.70;97.20
2653;DHT22;1336;48.692;9.144;2023-06-14T06:46:59;20.70;97.20
2653;DHT22;1336;48.692;9.144;2023-06-14T06:47:50;20.80;97.20
2653;DHT22;1336;48.692;9.144;2023-06-14T06:48:43;20.80;97.20
2653;DHT22;1336;48.692;9.144;2023-06-14T06:49:34;20.80;97.20
2653;DHT22;1336;48.692;9.144;2023-06-14T06:50:26;20.90;97.20
2653;DHT22;1336;48.692;9.144;2023-06-14T06:51:16;20.90;97.20
2653;DHT22;1336;48.692;9.144;2023-06-14T06:52:08;20.90;97.20
2653;DHT22;1336;48.692;9.144;2023-06-14T06:52:59;20.90;97.20
2653;DHT22;1336;48.692;9.144;2023-06-14T06:53:53;21.00;97.20
2653;DHT22;1336;48.692;9.144;2023-06-14T06:54:44;21.00;97.20
2653;DHT22;1336;48.692;9.144;2023-06-14T06:55:35;21.00;97.20
2653;DHT22;1336;48.692;9.144;2023-06-14T06:56:27;21.00;97.20
2653;DHT22;1336;48.692;9.144;2023-06-14T06:57:18;21.00;97.20
2653;DHT22;1336;48.692;9.144;2023-06-14T06:58:09;21.10;97.20
2653;DHT22;1336;48.692;9.144;2023-06-14T06:59:01;21.10;97.20
2653;DHT22;1336;48.692;9.144;2023-06-14T06:59:52;21.10;97.20
2653;DHT22;1336;48.692;9.144;2023-06-14T07:00:43;21.10;97.20
2653;DHT22;1336;48.692;9.144;2023-06-14T07:01:34;21.10;97.20
2653;DHT22;1336;48.692;9.144;2023-06-14T07:02:26;21.20;97.20
2653;DHT22;1336;48.692;9.144;2023-06-14T07:03:17;21.20;97.20
2653;DHT22;1336;48.692;9.144;2023-06-14T07:04:10;21.20;97.20
2653;DHT22;1336;48.692;9.144;2023-06-14T07:05:01;21.20;97.20
2653;DHT22;1336;48.692;9.144;2023-06-14T07:05:52;21.20;97.20
2653;DHT22;1336;48.692;9.144;2023-06-14T07:06:43;21.20;97.20
2653;DHT22;1336;48.692;9.144;2023-06-14T07:07:35;21.20;97.20
2653;DHT22;1336;48.692;9.144;2023-06-14T07:08:26;21.20;97.20
2653;DHT22;1336;48.692;9.144;2023-06-14T07:09:18;21.20;97.20
2653;DHT22;1336;48.692;9.144;2023-06-14T07:10:10;21.20;97.20
2653;DHT22;1336;48.692;9.144;2023-06-14T07:11:02;21.30;97.20
2653;DHT22;1336;48.692;9.144;2023-06-14T07:11:52;21.30;97.20
2653;DHT22;1336;48.692;9.144;2023-06-14T07:12:44;21.30;97.20
2653;DHT22;1336;48.692;9.144;2023-06-14T07:13:35;21.40;97.20
2653;DHT22;1336;48.692;9.144;2023-06-14T07:14:26;21.40;97.20
2653;DHT22;1336;48.692;9.144;2023-06-14T07:15:17;21.50;97.20
2653;DHT22;1336;48.692;9.144;2023-06-14T07:16:09;21.50;97.20
2653;DHT22;1336;48.692;9.144;2023-06-14T07:17:00;21.60;97.20
2653;DHT22;1336;48.692;9.144;2023-06-14T07:17:52;21.70;97.20
2653;DHT22;1336;48.692;9.144;2023-06-14T07:18:43;21.80;97.20
2653;DHT22;1336;48.692;9.144;2023-06-14T07:19:36;21.90;97.20
2653;DHT22;1336;48.692;9.144;2023-06-14T07:20:27;22.00;97.20
2653;DHT22;1336;48.692;9.144;2023-06-14T07:21:19;22.00;97.20
2653;DHT22;1336;48.692;9.144;2023-06-14T07:22:10;22.10;97.20
2653;DHT22;1336;48.692;9.144;2023-06-14T07:23:02;22.10;97.20
2653;DHT22;1336;48.692;9.144;2023-06-14T07:23:54;22.10;97.20
2653;DHT22;1336;48.692;9.144;2023-06-14T07:24:45;22.20;97.20
2653;DHT22;1336;48.692;9.144;2023-06-14T07:25:37;22.20;97.20
2653;DHT22;1336;48.692;9.144;2023-06-14T07:26:27;22.30;97.20
2653;DHT22;1336;48.692;9.144;2023-06-14T07:27:19;22.30;97.20
2653;DHT22;1336;48.692;9.144;2023-06-14T07:28:10;22.40;97.20
2653;DHT22;1336;48.692;9.144;2023-06-14T07:29:02;22.40;97.20
2653;DHT22;1336;48.692;9.144;2023-06-14T07:29:53;22.40;97.20
2653;DHT22;1336;48.692;9.144;2023-06-14T07:30:44;22.40;97.20
2653;DHT22;1336;48.692;9.144;2023-06-14T07:31:35;22.50;97.20
2653;DHT22;1336;48.692;9.144;2023-06-14T07:32:27;22.50;97.20
2653;DHT22;1336;48.692;9.144;2023-06-14T07:33:17;22.60;97.20
2653;DHT22;1336;48.692;9.144;2023-06-14T07:34:09;22.60;97.20
2653;DHT22;1336;48.692;9.144;2023-06-14T07:35:01;22.60;97.20
2653;DHT22;1336;48.692;9.144;2023-06-14T07:35:53;22.70;97.20
2653;DHT22;1336;48.692;9.144;2023-06-14T07:36:44;22.80;97.20
2653;DHT22;1336;48.692;9.144;2023-06-14T07:37:36;22.80;97.20
2653;DHT22;1336;48.692;9.144;2023-06-14T07:38:27;22.90;97.20
2653;DHT22;1336;48.692;9.144;2023-06-14T07:39:18;22.90;97.20
2653;DHT22;1336;48.692;9.144;2023-06-14T07:40:10;22.90;97.20
2653;DHT22;1336;48.692;9.144;2023-06-14T07:41:03;23.00;97.20
2653;DHT22;1336;48.692;9.144;2023-06-14T07:41:54;23.00;97.20
2653;DHT22;1336;48.692;9.144;2023-06-14T07:42:45;23.10;97.20
2653;DHT22;1336;48.692;9.144;2023-06-14T07:43:36;23.10;97.20
2653;DHT22;1336;48.692;9.144;2023-06-14T07:44:29;23.10;97.20
2653;DHT22;1336;48.692;9.144;2023-06-14T07:45:20;23.10;97.20
2653;DHT22;1336;48.692;9.144;2023-06-14T07:46:12;23.20;97.20
2653;DHT22;1336;48.692;9.144;2023-06-14T07:47:04;23.20;97.20
2653;DHT22;1336;48.692;9.144;2023-06-14T07:47:55;23.20;97.20
2653;DHT22;1336;48.692;9.144;2023-06-14T07:48:46;23.30;97.20
2653;DHT22;1336;48.692;9.144;2023-06-14T07:49:38;23.30;97.20
2653;DHT22;1336;48.692;9.144;2023-06-14T07:50:30;23.30;97.20
2653;DHT22;1336;48.692;9.144;2023-06-14T07:51:22;23.40;97.20
2653;DHT22;1336;48.692;9.144;2023-06-14T07:52:13;23.50;97.20
2653;DHT22;1336;48.692;9.144;2023-06-14T07:53:05;23.50;97.20
2653;DHT22;1336;48.692;9.144;2023-06-14T07:53:56;23.50;97.20
2653;DHT22;1336;48.692;9.144;2023-06-14T07:54:47;23.60;97.20
2653;DHT22;1336;48.692;9.144;2023-06-14T07:55:38;23.60;97.20
2653;DHT22;1336;48.692;9.144;2023-06-14T07:56:33;23.70;97.20
2653;DHT22;1336;48.692;9.144;2023-06-14T07:57:24;23.70;97.20
2653;DHT22;1336;48.692;9.144;2023-06-14T07:58:16;23.80;97.20
2653;DHT22;1336;48.692;9.144;2023-06-14T07:59:06;23.90;97.20
2653;DHT22;1336;48.692;9.144;2023-06-14T07:59:58;23.90;97.20
2653;DHT22;1336;48.692;9.144;2023-06-14T08:00:49;24.00;97.20
2653;DHT22;1336;48.692;9.144;2023-06-14T08:01:41;24.00;97.20
2653;DHT22;1336;48.692;9.144;2023-06-14T08:02:37;24.10;97.20
2653;DHT22;1336;48.692;9.144;2023-06-14T08:03:29;24.10;97.20
2653;DHT22;1336;48.692;9.144;2023-06-14T08:04:20;24.20;97.20
2653;DHT22;1336;48.692;9.144;2023-06-14T08:05:12;24.20;97.20
2653;DHT22;1336;48.692;9.144;2023-06-14T08:06:05;24.20;97.20
2653;DHT22;1336;48.692;9.144;2023-06-14T08:06:57;24.20;97.20
2653;DHT22;1336;48.692;9.144;2023-06-14T08:07:48;24.20;97.20
2653;DHT22;1336;48.692;9.144;2023-06-14T08:08:40;24.30;97.20
2653;DHT22;1336;48.692;9.144;2023-06-14T08:09:30;24.30;97.20
2653;DHT22;1336;48.692;9.144;2023-06-14T08:10:23;24.40;97.20
2653;DHT22;1336;48.692;9.144;2023-06-14T08:11:13;24.40;97.20
2653;DHT22;1336;48.692;9.144;2023-06-14T08:12:06;24.40;97.20
2653;DHT22;1336;48.692;9.144;2023-06-14T08:12:57;24.40;97.20
2653;DHT22;1336;48.692;9.144;2023-06-14T08:13:49;24.50;97.20
2653;DHT22;1336;48.692;9.144;2023-06-14T08:14:41;24.50;97.20
2653;DHT22;1336;48.692;9.144;2023-06-14T08:15:33;24.50;97.20
2653;DHT22;1336;48.692;9.144;2023-06-14T08:16:24;24.50;97.20
2653;DHT22;1336;48.692;9.144;2023-06-14T08:17:15;24.60;97.20
2653;DHT22;1336;48.692;9.144;2023-06-14T08:18:06;24.60;97.20
2653;DHT22;1336;48.692;9.144;2023-06-14T08:18:58;24.70;97.20
2653;DHT22;1336;48.692;9.144;2023-06-14T08:19:49;24.70;97.20
2653;DHT22;1336;48.692;9.144;2023-06-14T08:20:41;24.80;97.20
2653;DHT22;1336;48.692;9.144;2023-06-14T08:21:33;24.80;97.20
2653;DHT22;1336;48.692;9.144;2023-06-14T08:22:26;24.80;97.20
2653;DHT22;1336;48.692;9.144;2023-06-14T08:23:19;24.80;97.20
2653;DHT22;1336;48.692;9.144;2023-06-14T08:24:11;24.90;97.20
2653;DHT22;1336;48.692;9.144;2023-06-14T08:25:04;24.90;97.20
2653;DHT22;1336;48.692;9.144;2023-06-14T08:25:55;25.00;97.20
2653;DHT22;1336;48.692;9.144;2023-06-14T08:26:47;25.00;97.20
2653;DHT22;1336;48.692;9.144;2023-06-14T08:27:37;25.00;97.20
2653;DHT22;1336;48.692;9.144;2023-06-14T08:28:29;25.00;97.20
2653;DHT22;1336;48.692;9.144;2023-06-14T08:29:20;25.10;97.20
2653;DHT22;1336;48.692;9.144;2023-06-14T08:30:12;25.10;97.20
2653;DHT22;1336;48.692;9.144;2023-06-14T08:31:03;25.10;97.20
2653;DHT22;1336;48.692;9.144;2023-06-14T08:31:55;25.10;97.20
2653;DHT22;1336;48.692;9.144;2023-06-14T08:32:46;25.10;97.20
2653;DHT22;1336;48.692;9.144;2023-06-14T08:33:37;25.20;97.20
2653;DHT22;1336;48.692;9.144;2023-06-14T08:34:29;25.20;97.20
2653;DHT22;1336;48.692;9.144;2023-06-14T08:35:21;25.20;97.20
2653;DHT22;1336;48.692;9.144;2023-06-14T08:36:12;25.30;97.20
2653;DHT22;1336;48.692;9.144;2023-06-14T08:37:05;25.30;97.20
2653;DHT22;1336;48.692;9.144;2023-06-14T08:37:57;25.40;97.20
2653;DHT22;1336;48.692;9.144;2023-06-14T08:38:48;25.40;97.20
2653;DHT22;1336;48.692;9.144;2023-06-14T08:39:39;25.40;97.20
2653;DHT22;1336;48.692;9.144;2023-06-14T08:40:31;25.40;97.20
2653;DHT22;1336;48.692;9.144;2023-06-14T08:41:22;25.40;97.20
2653;DHT22;1336;48.692;9.144;2023-06-14T08:42:15;25.40;97.20
2653;DHT22;1336;48.692;9.144;2023-06-14T08:43:09;25.40;97.20
2653;DHT22;1336;48.692;9.144;2023-06-14T08:44:00;25.40;97.20
2653;DHT22;1336;48.692;9.144;2023-06-14T08:44:51;25.40;97.20
2653;DHT22;1336;48.692;9.144;2023-06-14T08:45:43;25.40;97.20
2653;DHT22;1336;48.692;9.144;2023-06-14T08:46:36;25.50;97.20
2653;DHT22;1336;48.692;9.144;2023-06-14T08:47:29;25.50;97.20
2653;DHT22;1336;48.692;9.144;2023-06-14T08:48:27;25.50;97.20
2653;DHT22;1336;48.692;9.144;2023-06-14T08:49:20;25.50;97.20
2653;DHT22;1336;48.692;9.144;2023-06-14T08:50:11;25.60;97.20
2653;DHT22;1336;48.692;9.144;2023-06-14T08:51:06;25.60;97.20
2653;DHT22;1336;48.692;9.144;2023-06-14T08:52:00;25.60;97.20
2653;DHT22;1336;48.692;9.144;2023-06-14T08:52:54;25.60;97.20
2653;DHT22;1336;48.692;9.144;2023-06-14T08:53:52;25.60;97.20
2653;DHT22;1336;48.692;9.144;2023-06-14T08:54:45;25.60;97.20
2653;DHT22;1336;48.692;9.144;2023-06-14T08:55:39;25.60;97.20
2653;DHT22;1336;48.692;9.144;2023-06-14T08:56:31;25.70;97.20
2653;DHT22;1336;48.692;9.144;2023-06-14T08:57:24;25.60;97.20
2653;DHT22;1336;48.692;9.144;2023-06-14T08:58:15;25.60;97.20
2653;DHT22;1336;48.692;9.144;2023-06-14T08:59:08;25.60;97.20
2653;DHT22;1336;48.692;9.144;2023-06-14T09:00:00;25.60;97.20
2653;DHT22;1336;48.692;9.144;2023-06-14T09:01:01;25.60;97.20
2653;DHT22;1336;48.692;9.144;2023-06-14T09:01:52;25.70;97.20
2653;DHT22;1336;48.692;9.144;2023-06-14T09:02:44;25.60;97.20
2653;DHT22;1336;48.692;9.144;2023-06-14T09:03:35;25.70;97.20
2653;DHT22;1336;48.692;9.144;2023-06-14T09:04:31;25.70;97.20
2653;DHT22;1336;48.692;9.144;2023-06-14T09:05:24;25.70;97.20
2653;DHT22;1336;48.692;9.144;2023-06-14T09:06:17;25.70;97.20
2653;DHT22;1336;48.692;9.144;2023-06-14T09:07:09;25.70;97.20
2653;DHT22;1336;48.692;9.144;2023-06-14T09:08:02;25.70;97.20
2653;DHT22;1336;48.692;9.144;2023-06-14T09:08:55;25.70;97.20
2653;DHT22;1336;48.692;9.144;2023-06-14T09:09:47;25.80;97.20
2653;DHT22;1336;48.692;9.144;2023-06-14T09:10:39;25.80;97.20
2653;DHT22;1336;48.692;9.144;2023-06-14T09:11:31;25.80;97.20
2653;DHT22;1336;48.692;9.144;2023-06-14T09:12:22;25.80;97.20
2653;DHT22;1336;48.692;9.144;2023-06-14T09:13:14;25.80;97.20
2653;DHT22;1336;48.692;9.144;2023-06-14T09:14:05;25.70;97.20
2653;DHT22;1336;48.692;9.144;2023-06-14T09:14:57;25.80;97.20
2653;DHT22;1336;48.692;9.144;2023-06-14T09:15:48;25.70;97.20
2653;DHT22;1336;48.692;9.144;2023-06-14T09:16:39;25.70;97.20
2653;DHT22;1336;48.692;9.144;2023-06-14T09:17:32;25.70;97.20
2653;DHT22;1336;48.692;9.144;2023-06-14T09:18:34;25.70;97.20
2653;DHT22;1336;48.692;9.144;2023-06-14T09:19:25;25.80;97.20
2653;DHT22;1336;48.692;9.144;2023-06-14T09:20:17;25.80;97.20
2653;DHT22;1336;48.692;9.144;2023-06-14T09:21:09;25.90;97.20
2653;DHT22;1336;48.692;9.144;2023-06-14T09:22:01;25.90;97.20
2653;DHT22;1336;48.692;9.144;2023-06-14T09:22:52;26.00;97.20
2653;DHT22;1336;48.692;9.144;2023-06-14T09:23:47;26.00;97.20
2653;DHT22;1336;48.692;9.144;2023-06-14T09:24:38;26.10;97.20
2653;DHT22;1336;48.692;9.144;2023-06-14T09:25:30;26.10;97.20
2653;DHT22;1336;48.692;9.144;2023-06-14T09:26:21;26.10;97.20
2653;DHT22;1336;48.692;9.144;2023-06-14T09:27:15;26.10;97.20
2653;DHT22;1336;48.692;9.144;2023-06-14T09:28:09;26.10;97.20
2653;DHT22;1336;48.692;9.144;2023-06-14T09:29:01;26.10;97.20
2653;DHT22;1336;48.692;9.144;2023-06-14T09:29:52;26.10;97.20
2653;DHT22;1336;48.692;9.144;2023-06-14T09:30:43;26.20;97.20
2653;DHT22;1336;48.692;9.144;2023-06-14T09:31:35;26.20;97.20
2653;DHT22;1336;48.692;9.144;2023-06-14T09:32:27;26.20;97.20
2653;DHT22;1336;48.692;9.144;2023-06-14T09:33:18;26.20;97.20
2653;DHT22;1336;48.692;9.144;2023-06-14T09:34:09;26.20;97.20
2653;DHT22;1336;48.692;9.144;2023-06-14T09:35:02;26.30;97.20
2653;DHT22;1336;48.692;9.144;2023-06-14T09:35:54;26.30;97.20
2653;DHT22;1336;48.692;9.144;2023-06-14T09:36:45;26.30;97.20
2653;DHT22;1336;48.692;9.144;2023-06-14T09:37:36;26.30;97.20
2653;DHT22;1336;48.692;9.144;2023-06-14T09:38:29;26.40;97.20
2653;DHT22;1336;48.692;9.144;2023-06-14T09:39:21;26.40;97.20
2653;DHT22;1336;48.692;9.144;2023-06-14T09:40:13;26.40;97.20
2653;DHT22;1336;48.692;9.144;2023-06-14T09:41:04;26.40;97.20
2653;DHT22;1336;48.692;9.144;2023-06-14T09:41:56;26.40;97.20
2653;DHT22;1336;48.692;9.144;2023-06-14T09:42:47;26.40;97.20
2653;DHT22;1336;48.692;9.144;2023-06-14T09:43:40;26.40;97.20
2653;DHT22;1336;48.692;9.144;2023-06-14T09:44:31;26.40;97.20
2653;DHT22;1336;48.692;9.144;2023-06-14T09:45:22;26.30;97.20
2653;DHT22;1336;48.692;9.144;2023-06-14T09:46:14;26.30;97.20
2653;DHT22;1336;48.692;9.144;2023-06-14T09:47:06;26.30;97.20
2653;DHT22;1336;48.692;9.144;2023-06-14T09:47:58;26.30;97.20
2653;DHT22;1336;48.692;9.144;2023-06-14T09:48:49;26.40;97.20
2653;DHT22;1336;48.692;9.144;2023-06-14T09:49:40;26.40;97.20
2653;DHT22;1336;48.692;9.144;2023-06-14T09:50:32;26.50;97.20
2653;DHT22;1336;48.692;9.144;2023-06-14T09:51:24;26.50;97.20
2653;DHT22;1336;48.692;9.144;2023-06-14T09:52:17;26.60;97.20
2653;DHT22;1336;48.692;9.144;2023-06-14T09:53:11;26.60;97.20
2653;DHT22;1336;48.692;9.144;2023-06-14T09:54:03;26.60;97.20
2653;DHT22;1336;48.692;9.144;2023-06-14T09:54:59;26.50;97.20
2653;DHT22;1336;48.692;9.144;2023-06-14T09:55:52;26.50;97.20
2653;DHT22;1336;48.692;9.144;2023-06-14T09:56:47;26.50;97.20
2653;DHT22;1336;48.692;9.144;2023-06-14T09:57:41;26.50;97.20
2653;DHT22;1336;48.692;9.144;2023-06-14T09:58:34;26.60;97.20
2653;DHT22;1336;48.692;9.144;2023-06-14T09:59:29;26.60;97.20
2653;DHT22;1336;48.692;9.144;2023-06-14T10:00:23;26.70;97.20
2653;DHT22;1336;48.692;9.144;2023-06-14T10:01:17;26.70;97.20
2653;DHT22;1336;48.692;9.144;2023-06-14T10:02:11;26.80;97.20
2653;DHT22;1336;48.692;9.144;2023-06-14T10:03:10;26.80;97.20
2653;DHT22;1336;48.692;9.144;2023-06-14T10:04:03;26.80;97.20
2653;DHT22;1336;48.692;9.144;2023-06-14T10:04:58;26.80;97.20
2653;DHT22;1336;48.692;9.144;2023-06-14T10:05:55;26.80;97.20
2653;DHT22;1336;48.692;9.144;2023-06-14T10:06:52;26.80;97.20
2653;DHT22;1336;48.692;9.144;2023-06-14T10:07:48;26.80;97.20
2653;DHT22;1336;48.692;9.144;2023-06-14T10:08:43;26.80;97.20
2653;DHT22;1336;48.692;9.144;2023-06-14T10:09:36;26.90;97.20
2653;DHT22;1336;48.692;9.144;2023-06-14T10:10:29;27.00;97.20
2653;DHT22;1336;48.692;9.144;2023-06-14T10:11:21;27.00;97.20
2653;DHT22;1336;48.692;9.144;2023-06-14T10:12:12;27.10;97.20
2653;DHT22;1336;48.692;9.144;2023-06-14T10:13:09;27.10;97.20
2653;DHT22;1336;48.692;9.144;2023-06-14T10:14:02;27.20;97.20
2653;DHT22;1336;48.692;9.144;2023-06-14T10:14:55;27.20;97.20
2653;DHT22;1336;48.692;9.144;2023-06-14T10:15:58;27.20;97.20
2653;DHT22;1336;48.692;9.144;2023-06-14T10:16:56;27.20;97.20
2653;DHT22;1336;48.692;9.144;2023-06-14T10:17:52;27.20;97.20
2653;DHT22;1336;48.692;9.144;2023-06-14T10:18:49;27.30;97.20
2653;DHT22;1336;48.692;9.144;2023-06-14T10:19:46;27.30;97.20
2653;DHT22;1336;48.692;9.144;2023-06-14T10:20:50;27.40;97.20
2653;DHT22;1336;48.692;9.144;2023-06-14T10:21:49;27.40;97.20
2653;DHT22;1336;48.692;9.144;2023-06-14T10:22:50;27.40;97.20
2653;DHT22;1336;48.692;9.144;2023-06-14T10:23:44;27.50;97.20
2653;DHT22;1336;48.692;9.144;2023-06-14T10:24:41;27.50;97.20
2653;DHT22;1336;48.692;9.144;2023-06-14T10:25:35;27.50;97.20
2653;DHT22;1336;48.692;9.144;2023-06-14T10:26:26;27.50;97.20
2653;DHT22;1336;48.692;9.144;2023-06-14T10:27:18;27.50;97.20
2653;DHT22;1336;48.692;9.144;2023-06-14T10:28:15;27.40;97.20
2653;DHT22;1336;48.692;9.144;2023-06-14T10:29:08;27.30;97.20
2653;DHT22;1336;48.692;9.144;2023-06-14T10:30:04;27.20;97.20
2653;DHT22;1336;48.692;9.144;2023-06-14T10:31:03;27.10;97.20
2653;DHT22;1336;48.692;9.144;2023-06-14T10:31:57;27.00;97.20
2653;DHT22;1336;48.692;9.144;2023-06-14T10:33:07;27.00;97.20
2653;DHT22;1336;48.692;9.144;2023-06-14T10:33:58;26.90;97.20
2653;DHT22;1336;48.692;9.144;2023-06-14T10:34:54;27.00;97.20
2653;DHT22;1336;48.692;9.144;2023-06-14T10:35:46;27.00;97.20
2653;DHT22;1336;48.692;9.144;2023-06-14T10:36:41;27.10;97.20
2653;DHT22;1336;48.692;9.144;2023-06-14T10:37:33;27.10;97.20
2653;DHT22;1336;48.692;9.144;2023-06-14T10:38:30;27.20;97.20
2653;DHT22;1336;48.692;9.144;2023-06-14T10:39:21;27.20;97.20
2653;DHT22;1336;48.692;9.144;2023-06-14T10:40:29;27.30;97.20
2653;DHT22;1336;48.692;9.144;2023-06-14T10:41:22;27.40;97.20